SBKP/CPQ METAR and TAF weather

Enter ICAO airport designator
Station Type Date Time Source
SBKP METAR 2024/04/17 19:00 UTC NOAA

SBKP 171900Z 28005KT 240V310 9999 FEW025 SCT050 FEW050TCU 27/21 Q1015


Station Type Date Time Source
SBKP Decoded METAR 2024/04/17 19:00 UTC NOAA

Campinas Aeroporto , Brazil (SBKP) 23-00S 047-08W 661M
Apr 17, 2024 - 03:00 PM EDT / 2024.04.17 1900 UTC
Wind: from the W (280 degrees) at 6 MPH (5 KT) (direction variable):0
Visibility: greater than 7 mile(s):0
Sky conditions: partly cloudy
Weather: Towering cumulus clouds observed
Temperature: 80 F (27 C)
Dew Point: 69 F (21 C)
Relative Humidity: 69%
Pressure (altimeter): 29.97 in. Hg (1015 hPa)
ob: SBKP 171900Z 28005KT 240V310 9999 FEW025 SCT050 FEW050TCU 27/21 Q1015
cycle: 19

Station Type Date Time Source
SBKP TAF 2024/04/17 18:51 UTC NOAA